METAR AND TAF INFORMATION
METAR FOR LTCC
ADDS - METARS form results

(2235 UTC 24 July 2017)
Data provider http://aviationweather.gov/adds/metars/
 
METAR text: LTCC 242220Z VRB02KT CAVOK 26/05 Q1002 NOSIG RMK RWY16 VRB02KT
Conditions at: LTCC (DIYARBAKIR(CIV/A, TR) observed 2220 UTC 24 July 2017
Temperature: 26.0°C (79°F)
Dewpoint: 5.0°C (41°F) [RH = 26%]
Pressure (altimeter): 29.59 inches Hg (1002.0 mb)
Winds: variable direction winds at 2 MPH (2 knots; 1.0 m/s)
Visibility: 6 or more miles (10+ km)
Ceiling: ceiling and visibility are OK
Clouds: unknown
Weather: no significant weather observed at this time

METAR text: LTCC 242150Z 14007KT CAVOK 27/06 Q1002 NOSIG RMK RWY16 VRB05KT
Conditions at: LTCC (DIYARBAKIR(CIV/A, TR) observed 2150 UTC 24 July 2017
Temperature: 27.0°C (81°F)
Dewpoint: 6.0°C (43°F) [RH = 26%]
Pressure (altimeter): 29.59 inches Hg (1002.0 mb)
Winds: from the SE (140 degrees) at 8 MPH (7 knots; 3.6 m/s)
Visibility: 6 or more miles (10+ km)
Ceiling: ceiling and visibility are OK
Clouds: unknown
Weather: no significant weather observed at this time

Forecast for: LTCC (DIYARBAKIR(CIV/A, TR)
Text: TAF LTCC 241640Z 2418/2518 30009KT CAVOK
Forecast period: 1800 UTC 24 July 2017 to 1800 UTC 25 July 2017
Forecast type: FROM: standard forecast or significant change
Winds: from the WNW (300 degrees) at 10 MPH (9 knots; 4.7 m/s)
Visibility: 6 or more miles (10+ km)
Clouds: not forecast
Weather: NSW  (no significant weather)

 AIRPORT MAP

 RUNWAY INFORMATION
Runway 16 Runway length 11644 ft Runway width 148 ft
Runway elevation 2251 ft Runway displaced threshold 0 ft Runway heading 163
Runway 34 Runway length 11644 ft Runway width 148 ft
Runway elevation 2176 ft Runway displaced threshold 0 ft Runway heading 343

 AIRPORT FREQUENCIES
Type ACP Name MAC ALCE Frequency 123.2 MHZ
Type APP Name APP Frequency 122.1 MHZ
Type ATIS Name ATIS Frequency 122.425 MHZ
Type GND Name GND Frequency 122.1 MHZ
Type TWR Name TWR Frequency 118.1 MHZ

 AIRPORT NEAR NAVIGATION AIDS
Type TACAN Name Diyarbakir Frequency 110000 KHZ
Type VOR-DME Name Diyarbakir Frequency 109400 KHZ
Type NDB Name Diyarbakir Frequency 330 KHZ



Copyright © 2011 - 2017 BirgenAir Virtual Airlines. All rights reserved. Developed by Goktug Unver